createdAt,value
2023-01-19T06:53:44.326Z,28.94
2023-01-19T06:57:44.310Z,28.99
2023-01-19T06:58:44.413Z,28.97
2023-01-19T07:04:44.229Z,28.86
2023-01-19T07:12:44.635Z,28.94
2023-01-19T07:17:59.758Z,28.97
2023-01-19T07:24:44.039Z,28.90
2023-01-19T07:41:44.480Z,29.17
2023-01-19T07:43:43.904Z,29.03
2023-01-19T07:50:44.194Z,29.18
2023-01-19T07:53:44.169Z,28.96
2023-01-19T07:54:43.831Z,29.05
2023-01-19T08:19:44.593Z,29.29
2023-01-19T08:22:43.599Z,29.08
2023-01-19T08:24:43.555Z,29.10
2023-01-19T08:25:43.536Z,29.19
2023-01-19T08:26:43.551Z,29.07
2023-01-19T08:27:43.501Z,29.11
2023-01-19T08:29:43.717Z,29.25
2023-01-19T08:30:43.679Z,29.30
2023-01-19T08:31:43.568Z,29.26
2023-01-19T08:32:43.598Z,29.21
2023-01-19T08:33:43.725Z,29.16
2023-01-19T08:34:44.547Z,29.15
2023-01-19T08:35:43.504Z,29.23
2023-01-19T08:37:43.447Z,29.12
2023-01-19T08:40:44.397Z,29.20
2023-01-19T08:41:44.454Z,29.23
2023-01-19T08:44:57.355Z,29.20
2023-01-19T08:45:44.382Z,29.26
2023-01-19T08:46:43.432Z,29.25
2023-01-19T08:47:43.477Z,29.23
2023-01-19T08:50:43.447Z,29.16
2023-01-19T08:51:43.370Z,29.28
2023-01-19T08:52:43.289Z,29.40
2023-01-19T08:53:43.353Z,29.44
2023-01-19T08:54:43.679Z,29.51
2023-01-19T08:55:43.241Z,29.60
2023-01-19T08:56:43.280Z,29.71
2023-01-19T08:57:43.237Z,29.86
2023-01-19T08:58:43.225Z,29.99
2023-01-19T08:59:44.647Z,30.14
2023-01-19T09:00:43.285Z,30.08
2023-01-19T09:01:43.466Z,30.30
2023-01-19T09:02:43.847Z,30.34
2023-01-19T09:03:43.187Z,30.45
2023-01-19T09:04:43.663Z,30.46
2023-01-19T09:05:43.149Z,30.55
2023-01-19T09:06:43.301Z,30.68
2023-01-19T09:07:44.199Z,30.77
2023-01-19T09:08:43.176Z,30.91
2023-01-19T09:09:43.189Z,31.12
2023-01-19T09:10:43.112Z,31.19
2023-01-19T09:11:43.098Z,31.21
2023-01-19T09:12:43.192Z,31.11
2023-01-19T09:13:44.078Z,31.22
2023-01-19T09:14:43.162Z,31.31
2023-01-19T09:15:43.128Z,31.37
2023-01-19T09:16:43.069Z,31.40
2023-01-19T09:17:43.048Z,31.30
2023-01-19T09:18:43.041Z,31.19
2023-01-19T09:19:43.046Z,31.40
2023-01-19T09:20:43.042Z,31.34
2023-01-19T09:21:43.012Z,31.33
2023-01-19T09:22:43.165Z,31.29
2023-01-19T09:23:42.992Z,31.31
2023-01-19T09:24:43.013Z,31.32
2023-01-19T09:25:43.078Z,31.25
2023-01-19T09:26:42.967Z,31.34
2023-01-19T09:27:43.178Z,31.49
2023-01-19T09:28:42.955Z,31.41
2023-01-19T09:29:42.947Z,31.41
2023-01-19T09:30:42.990Z,31.29
2023-01-19T09:31:42.970Z,31.31
2023-01-19T09:32:43.216Z,31.16
2023-01-19T09:33:42.906Z,31.26
2023-01-19T09:34:42.898Z,31.30
2023-01-19T09:35:43.170Z,31.29
2023-01-19T09:36:42.889Z,31.33
2023-01-19T09:37:42.875Z,31.33
2023-01-19T09:38:42.864Z,31.34
2023-01-19T09:39:42.926Z,31.16
2023-01-19T09:40:46.428Z,31.12
2023-01-19T09:41:42.839Z,31.00
2023-01-19T09:42:42.881Z,30.87
2023-01-19T09:43:42.836Z,30.74
2023-01-19T09:44:43.357Z,30.31
2023-01-19T09:45:43.279Z,30.36
2023-01-19T09:46:43.740Z,30.22
2023-01-19T09:51:43.179Z,30.32
2023-01-19T09:56:43.229Z,30.20
2023-01-19T10:51:43.336Z,30.63
2023-01-19T11:25:42.925Z,30.96
2023-01-19T13:37:40.772Z,30.27
